sensor_id;sensor_type;location;lat;lon;timestamp;P1;durP1;ratioP1;P2;durP2;ratioP2
6751;SDS011;3413;47.680;9.166;2022-08-19T00:03:43;9.67;;;6.93;;
6751;SDS011;3413;47.680;9.166;2022-08-19T00:08:45;9.10;;;5.97;;
6751;SDS011;3413;47.680;9.166;2022-08-19T00:13:47;8.43;;;6.07;;
6751;SDS011;3413;47.680;9.166;2022-08-19T00:18:51;6.63;;;5.30;;
6751;SDS011;3413;47.680;9.166;2022-08-19T00:23:53;9.77;;;6.37;;
6751;SDS011;3413;47.680;9.166;2022-08-19T00:28:58;8.10;;;6.30;;
6751;SDS011;3413;47.680;9.166;2022-08-19T00:34:02;11.60;;;6.17;;
6751;SDS011;3413;47.680;9.166;2022-08-19T00:39:04;8.90;;;6.20;;
6751;SDS011;3413;47.680;9.166;2022-08-19T00:49:27;7.97;;;5.83;;
6751;SDS011;3413;47.680;9.166;2022-08-19T00:54:33;8.10;;;6.23;;
6751;SDS011;3413;47.680;9.166;2022-08-19T00:59:38;8.50;;;6.50;;
6751;SDS011;3413;47.680;9.166;2022-08-19T01:05:02;7.83;;;5.93;;
6751;SDS011;3413;47.680;9.166;2022-08-19T01:10:07;8.43;;;6.80;;
6751;SDS011;3413;47.680;9.166;2022-08-19T01:15:14;10.23;;;7.77;;
6751;SDS011;3413;47.680;9.166;2022-08-19T01:20:18;9.80;;;7.60;;
6751;SDS011;3413;47.680;9.166;2022-08-19T01:25:41;9.60;;;7.50;;
6751;SDS011;3413;47.680;9.166;2022-08-19T01:30:50;9.47;;;7.70;;
6751;SDS011;3413;47.680;9.166;2022-08-19T01:36:03;11.60;;;7.97;;
6751;SDS011;3413;47.680;9.166;2022-08-19T01:41:06;10.20;;;8.00;;
6751;SDS011;3413;47.680;9.166;2022-08-19T01:46:11;12.87;;;8.87;;
6751;SDS011;3413;47.680;9.166;2022-08-19T01:51:14;11.93;;;9.47;;
6751;SDS011;3413;47.680;9.166;2022-08-19T01:56:16;13.10;;;10.50;;
6751;SDS011;3413;47.680;9.166;2022-08-19T02:01:19;14.10;;;11.03;;
6751;SDS011;3413;47.680;9.166;2022-08-19T02:06:22;11.50;;;9.30;;
6751;SDS011;3413;47.680;9.166;2022-08-19T02:11:28;14.53;;;10.40;;
6751;SDS011;3413;47.680;9.166;2022-08-19T02:16:32;16.70;;;11.50;;
6751;SDS011;3413;47.680;9.166;2022-08-19T02:21:35;16.40;;;11.10;;
6751;SDS011;3413;47.680;9.166;2022-08-19T02:26:37;15.30;;;11.83;;
6751;SDS011;3413;47.680;9.166;2022-08-19T02:31:41;17.20;;;13.00;;
6751;SDS011;3413;47.680;9.166;2022-08-19T02:36:43;17.70;;;13.37;;
6751;SDS011;3413;47.680;9.166;2022-08-19T02:41:52;17.33;;;12.30;;
6751;SDS011;3413;47.680;9.166;2022-08-19T02:46:54;24.40;;;15.33;;
6751;SDS011;3413;47.680;9.166;2022-08-19T02:51:56;18.90;;;14.70;;
6751;SDS011;3413;47.680;9.166;2022-08-19T02:56:58;19.30;;;14.30;;
6751;SDS011;3413;47.680;9.166;2022-08-19T03:02:00;20.47;;;14.13;;
6751;SDS011;3413;47.680;9.166;2022-08-19T03:07:02;18.43;;;13.23;;
6751;SDS011;3413;47.680;9.166;2022-08-19T03:12:11;25.60;;;14.80;;
6751;SDS011;3413;47.680;9.166;2022-08-19T03:17:13;24.40;;;16.07;;
6751;SDS011;3413;47.680;9.166;2022-08-19T03:22:15;20.40;;;14.70;;
6751;SDS011;3413;47.680;9.166;2022-08-19T03:27:17;20.70;;;15.03;;
6751;SDS011;3413;47.680;9.166;2022-08-19T03:32:19;21.93;;;15.77;;
6751;SDS011;3413;47.680;9.166;2022-08-19T03:37:33;23.30;;;17.47;;
6751;SDS011;3413;47.680;9.166;2022-08-19T03:42:36;26.50;;;18.43;;
6751;SDS011;3413;47.680;9.166;2022-08-19T03:47:58;29.50;;;18.90;;
6751;SDS011;3413;47.680;9.166;2022-08-19T03:53:00;30.97;;;20.47;;
6751;SDS011;3413;47.680;9.166;2022-08-19T03:58:02;25.20;;;18.70;;
6751;SDS011;3413;47.680;9.166;2022-08-19T04:03:04;26.13;;;17.67;;
6751;SDS011;3413;47.680;9.166;2022-08-19T04:08:06;24.37;;;17.10;;
6751;SDS011;3413;47.680;9.166;2022-08-19T04:13:17;24.90;;;16.80;;
6751;SDS011;3413;47.680;9.166;2022-08-19T04:18:20;24.80;;;17.73;;
6751;SDS011;3413;47.680;9.166;2022-08-19T04:23:22;24.17;;;16.00;;
6751;SDS011;3413;47.680;9.166;2022-08-19T04:28:24;20.90;;;15.30;;
6751;SDS011;3413;47.680;9.166;2022-08-19T04:33:27;22.80;;;16.37;;
6751;SDS011;3413;47.680;9.166;2022-08-19T04:38:29;21.63;;;16.13;;
6751;SDS011;3413;47.680;9.166;2022-08-19T04:43:32;24.80;;;16.10;;
6751;SDS011;3413;47.680;9.166;2022-08-19T04:48:35;24.17;;;16.80;;
6751;SDS011;3413;47.680;9.166;2022-08-19T04:53:49;23.60;;;16.77;;
6751;SDS011;3413;47.680;9.166;2022-08-19T04:58:53;31.60;;;18.93;;
6751;SDS011;3413;47.680;9.166;2022-08-19T05:03:57;26.53;;;18.77;;
6751;SDS011;3413;47.680;9.166;2022-08-19T05:09:03;28.17;;;18.77;;
6751;SDS011;3413;47.680;9.166;2022-08-19T05:14:06;30.00;;;19.40;;
6751;SDS011;3413;47.680;9.166;2022-08-19T05:19:09;30.23;;;19.30;;
6751;SDS011;3413;47.680;9.166;2022-08-19T05:24:33;29.77;;;19.60;;
6751;SDS011;3413;47.680;9.166;2022-08-19T05:29:36;29.83;;;19.40;;
6751;SDS011;3413;47.680;9.166;2022-08-19T05:34:38;31.20;;;19.80;;
6751;SDS011;3413;47.680;9.166;2022-08-19T05:39:40;31.47;;;19.87;;
6751;SDS011;3413;47.680;9.166;2022-08-19T05:44:43;35.40;;;21.03;;
6751;SDS011;3413;47.680;9.166;2022-08-19T05:49:45;31.60;;;20.00;;
6751;SDS011;3413;47.680;9.166;2022-08-19T05:54:48;34.47;;;21.37;;
6751;SDS011;3413;47.680;9.166;2022-08-19T05:59:52;33.27;;;21.30;;
6751;SDS011;3413;47.680;9.166;2022-08-19T06:04:59;34.77;;;21.37;;
6751;SDS011;3413;47.680;9.166;2022-08-19T06:10:03;32.90;;;22.17;;
6751;SDS011;3413;47.680;9.166;2022-08-19T06:15:12;38.00;;;23.90;;
6751;SDS011;3413;47.680;9.166;2022-08-19T06:20:15;37.10;;;24.00;;
6751;SDS011;3413;47.680;9.166;2022-08-19T06:25:39;38.90;;;25.13;;
6751;SDS011;3413;47.680;9.166;2022-08-19T06:30:42;38.80;;;24.60;;
6751;SDS011;3413;47.680;9.166;2022-08-19T06:35:44;39.03;;;25.27;;
6751;SDS011;3413;47.680;9.166;2022-08-19T06:40:46;38.10;;;25.70;;
6751;SDS011;3413;47.680;9.166;2022-08-19T06:45:49;41.77;;;25.57;;
6751;SDS011;3413;47.680;9.166;2022-08-19T06:50:54;37.80;;;25.30;;
6751;SDS011;3413;47.680;9.166;2022-08-19T06:55:57;40.00;;;25.90;;
6751;SDS011;3413;47.680;9.166;2022-08-19T07:01:03;39.20;;;25.40;;
6751;SDS011;3413;47.680;9.166;2022-08-19T07:06:10;39.70;;;25.87;;
6751;SDS011;3413;47.680;9.166;2022-08-19T07:11:35;39.07;;;26.87;;
6751;SDS011;3413;47.680;9.166;2022-08-19T07:16:38;38.10;;;25.83;;
6751;SDS011;3413;47.680;9.166;2022-08-19T07:21:43;35.83;;;23.90;;
6751;SDS011;3413;47.680;9.166;2022-08-19T07:26:45;40.30;;;26.20;;
6751;SDS011;3413;47.680;9.166;2022-08-19T07:31:52;35.90;;;24.23;;
6751;SDS011;3413;47.680;9.166;2022-08-19T07:36:57;33.60;;;23.30;;
6751;SDS011;3413;47.680;9.166;2022-08-19T07:42:00;34.13;;;23.33;;
6751;SDS011;3413;47.680;9.166;2022-08-19T07:47:05;39.03;;;23.97;;
6751;SDS011;3413;47.680;9.166;2022-08-19T07:52:27;33.10;;;23.87;;
6751;SDS011;3413;47.680;9.166;2022-08-19T07:57:29;34.27;;;24.30;;
6751;SDS011;3413;47.680;9.166;2022-08-19T08:02:32;35.07;;;23.60;;
6751;SDS011;3413;47.680;9.166;2022-08-19T08:07:34;31.60;;;22.83;;
6751;SDS011;3413;47.680;9.166;2022-08-19T08:12:55;38.67;;;26.47;;
6751;SDS011;3413;47.680;9.166;2022-08-19T08:18:10;33.87;;;23.00;;
6751;SDS011;3413;47.680;9.166;2022-08-19T08:23:14;35.07;;;23.30;;
6751;SDS011;3413;47.680;9.166;2022-08-19T08:28:29;33.57;;;24.13;;
6751;SDS011;3413;47.680;9.166;2022-08-19T08:33:32;35.50;;;22.90;;
6751;SDS011;3413;47.680;9.166;2022-08-19T08:38:36;34.83;;;24.27;;
6751;SDS011;3413;47.680;9.166;2022-08-19T08:43:44;40.23;;;25.33;;
6751;SDS011;3413;47.680;9.166;2022-08-19T08:48:55;34.33;;;23.93;;
6751;SDS011;3413;47.680;9.166;2022-08-19T08:54:00;39.87;;;27.17;;
6751;SDS011;3413;47.680;9.166;2022-08-19T09:04:14;49.30;;;30.80;;
6751;SDS011;3413;47.680;9.166;2022-08-19T09:09:20;52.83;;;31.20;;
6751;SDS011;3413;47.680;9.166;2022-08-19T09:19:53;51.70;;;30.40;;
6751;SDS011;3413;47.680;9.166;2022-08-19T09:24:57;48.10;;;29.33;;
6751;SDS011;3413;47.680;9.166;2022-08-19T09:29:59;50.17;;;30.37;;
6751;SDS011;3413;47.680;9.166;2022-08-19T09:35:02;50.93;;;30.77;;
6751;SDS011;3413;47.680;9.166;2022-08-19T09:40:10;57.80;;;31.67;;
6751;SDS011;3413;47.680;9.166;2022-08-19T09:45:14;56.67;;;29.77;;
6751;SDS011;3413;47.680;9.166;2022-08-19T09:50:17;50.33;;;29.23;;
6751;SDS011;3413;47.680;9.166;2022-08-19T09:55:19;50.00;;;29.97;;
6751;SDS011;3413;47.680;9.166;2022-08-19T10:00:24;47.13;;;29.27;;
6751;SDS011;3413;47.680;9.166;2022-08-19T10:05:27;47.10;;;28.77;;
6751;SDS011;3413;47.680;9.166;2022-08-19T10:10:49;47.87;;;29.57;;
6751;SDS011;3413;47.680;9.166;2022-08-19T10:15:52;42.60;;;26.73;;
6751;SDS011;3413;47.680;9.166;2022-08-19T10:21:02;47.37;;;27.93;;
6751;SDS011;3413;47.680;9.166;2022-08-19T10:26:06;46.37;;;27.47;;
6751;SDS011;3413;47.680;9.166;2022-08-19T10:31:10;43.43;;;26.43;;
6751;SDS011;3413;47.680;9.166;2022-08-19T10:36:43;41.27;;;25.77;;
6751;SDS011;3413;47.680;9.166;2022-08-19T10:41:57;39.30;;;24.47;;
6751;SDS011;3413;47.680;9.166;2022-08-19T10:46:59;40.23;;;23.93;;
6751;SDS011;3413;47.680;9.166;2022-08-19T10:52:18;35.30;;;22.30;;
6751;SDS011;3413;47.680;9.166;2022-08-19T10:57:39;39.10;;;22.80;;
6751;SDS011;3413;47.680;9.166;2022-08-19T11:03:02;39.80;;;23.00;;
6751;SDS011;3413;47.680;9.166;2022-08-19T11:08:04;34.50;;;22.10;;
6751;SDS011;3413;47.680;9.166;2022-08-19T11:13:24;36.90;;;23.27;;
6751;SDS011;3413;47.680;9.166;2022-08-19T11:18:26;37.97;;;24.40;;
6751;SDS011;3413;47.680;9.166;2022-08-19T11:23:28;40.63;;;25.10;;
6751;SDS011;3413;47.680;9.166;2022-08-19T11:28:30;49.27;;;29.00;;
6751;SDS011;3413;47.680;9.166;2022-08-19T11:33:32;50.60;;;30.97;;
6751;SDS011;3413;47.680;9.166;2022-08-19T11:38:35;61.77;;;33.30;;
6751;SDS011;3413;47.680;9.166;2022-08-19T11:43:37;56.93;;;33.67;;
6751;SDS011;3413;47.680;9.166;2022-08-19T11:48:41;62.43;;;33.30;;
6751;SDS011;3413;47.680;9.166;2022-08-19T11:53:43;48.83;;;31.00;;
6751;SDS011;3413;47.680;9.166;2022-08-19T11:58:46;50.80;;;30.20;;
6751;SDS011;3413;47.680;9.166;2022-08-19T12:03:48;48.47;;;29.17;;
6751;SDS011;3413;47.680;9.166;2022-08-19T12:08:52;47.93;;;29.30;;
6751;SDS011;3413;47.680;9.166;2022-08-19T12:13:54;48.33;;;30.00;;
6751;SDS011;3413;47.680;9.166;2022-08-19T12:18:57;48.40;;;30.57;;
6751;SDS011;3413;47.680;9.166;2022-08-19T12:24:04;49.87;;;30.57;;
6751;SDS011;3413;47.680;9.166;2022-08-19T12:29:07;49.47;;;30.30;;
6751;SDS011;3413;47.680;9.166;2022-08-19T12:34:09;44.93;;;29.70;;
6751;SDS011;3413;47.680;9.166;2022-08-19T12:39:11;43.57;;;27.80;;
6751;SDS011;3413;47.680;9.166;2022-08-19T12:44:14;44.03;;;28.33;;
6751;SDS011;3413;47.680;9.166;2022-08-19T12:49:17;49.80;;;29.93;;
6751;SDS011;3413;47.680;9.166;2022-08-19T12:54:40;41.43;;;28.10;;
6751;SDS011;3413;47.680;9.166;2022-08-19T12:59:43;40.00;;;28.33;;
6751;SDS011;3413;47.680;9.166;2022-08-19T13:04:45;45.03;;;30.73;;
6751;SDS011;3413;47.680;9.166;2022-08-19T13:09:50;46.60;;;31.03;;
6751;SDS011;3413;47.680;9.166;2022-08-19T13:14:53;47.60;;;31.10;;
6751;SDS011;3413;47.680;9.166;2022-08-19T13:19:55;46.80;;;30.33;;
6751;SDS011;3413;47.680;9.166;2022-08-19T13:24:57;44.90;;;30.93;;
6751;SDS011;3413;47.680;9.166;2022-08-19T13:30:00;43.53;;;28.70;;
6751;SDS011;3413;47.680;9.166;2022-08-19T13:35:22;48.20;;;30.07;;
6751;SDS011;3413;47.680;9.166;2022-08-19T13:40:24;46.33;;;31.20;;
6751;SDS011;3413;47.680;9.166;2022-08-19T13:45:28;48.40;;;31.33;;
6751;SDS011;3413;47.680;9.166;2022-08-19T13:50:31;50.10;;;32.37;;
6751;SDS011;3413;47.680;9.166;2022-08-19T13:55:33;46.80;;;31.70;;
6751;SDS011;3413;47.680;9.166;2022-08-19T14:00:40;46.43;;;31.90;;
6751;SDS011;3413;47.680;9.166;2022-08-19T14:05:45;49.93;;;32.70;;
6751;SDS011;3413;47.680;9.166;2022-08-19T14:10:47;46.87;;;31.90;;
6751;SDS011;3413;47.680;9.166;2022-08-19T14:15:50;48.30;;;32.50;;
6751;SDS011;3413;47.680;9.166;2022-08-19T14:20:53;56.63;;;36.90;;
6751;SDS011;3413;47.680;9.166;2022-08-19T14:26:03;46.67;;;32.47;;
6751;SDS011;3413;47.680;9.166;2022-08-19T14:31:05;51.10;;;34.20;;
6751;SDS011;3413;47.680;9.166;2022-08-19T14:36:07;53.67;;;35.00;;
6751;SDS011;3413;47.680;9.166;2022-08-19T14:41:11;56.73;;;35.17;;
6751;SDS011;3413;47.680;9.166;2022-08-19T14:46:22;51.47;;;35.13;;
6751;SDS011;3413;47.680;9.166;2022-08-19T14:51:25;50.33;;;34.70;;
6751;SDS011;3413;47.680;9.166;2022-08-19T14:56:30;53.30;;;36.43;;
6751;SDS011;3413;47.680;9.166;2022-08-19T15:01:32;52.63;;;35.77;;
6751;SDS011;3413;47.680;9.166;2022-08-19T15:06:34;53.13;;;36.40;;
6751;SDS011;3413;47.680;9.166;2022-08-19T15:11:36;54.03;;;35.80;;
6751;SDS011;3413;47.680;9.166;2022-08-19T15:16:39;59.47;;;38.17;;
6751;SDS011;3413;47.680;9.166;2022-08-19T15:21:43;59.10;;;36.97;;
6751;SDS011;3413;47.680;9.166;2022-08-19T15:26:45;54.90;;;36.70;;
6751;SDS011;3413;47.680;9.166;2022-08-19T15:31:47;58.37;;;37.50;;
6751;SDS011;3413;47.680;9.166;2022-08-19T15:36:52;61.90;;;41.00;;
6751;SDS011;3413;47.680;9.166;2022-08-19T15:41:54;57.43;;;37.50;;
6751;SDS011;3413;47.680;9.166;2022-08-19T15:46:56;55.97;;;37.63;;
6751;SDS011;3413;47.680;9.166;2022-08-19T15:51:58;51.57;;;35.80;;
6751;SDS011;3413;47.680;9.166;2022-08-19T15:57:01;53.13;;;34.93;;
6751;SDS011;3413;47.680;9.166;2022-08-19T16:02:24;53.83;;;36.17;;
6751;SDS011;3413;47.680;9.166;2022-08-19T16:07:46;55.30;;;37.37;;
6751;SDS011;3413;47.680;9.166;2022-08-19T16:12:49;54.00;;;36.17;;
6751;SDS011;3413;47.680;9.166;2022-08-19T16:17:51;52.33;;;34.77;;
6751;SDS011;3413;47.680;9.166;2022-08-19T16:22:57;51.03;;;34.20;;
6751;SDS011;3413;47.680;9.166;2022-08-19T16:28:00;48.40;;;32.80;;
6751;SDS011;3413;47.680;9.166;2022-08-19T16:33:09;61.30;;;36.30;;
6751;SDS011;3413;47.680;9.166;2022-08-19T16:38:11;57.90;;;36.63;;
6751;SDS011;3413;47.680;9.166;2022-08-19T16:43:13;55.23;;;35.47;;
6751;SDS011;3413;47.680;9.166;2022-08-19T16:48:15;57.03;;;36.27;;
6751;SDS011;3413;47.680;9.166;2022-08-19T16:53:18;51.23;;;33.63;;
6751;SDS011;3413;47.680;9.166;2022-08-19T16:58:22;55.30;;;34.73;;
6751;SDS011;3413;47.680;9.166;2022-08-19T17:03:29;49.20;;;32.40;;
6751;SDS011;3413;47.680;9.166;2022-08-19T17:08:37;51.60;;;33.47;;
6751;SDS011;3413;47.680;9.166;2022-08-19T17:13:39;51.67;;;32.80;;
6751;SDS011;3413;47.680;9.166;2022-08-19T17:18:43;49.63;;;32.83;;
6751;SDS011;3413;47.680;9.166;2022-08-19T17:23:45;50.80;;;33.63;;
6751;SDS011;3413;47.680;9.166;2022-08-19T17:28:49;50.13;;;32.80;;
6751;SDS011;3413;47.680;9.166;2022-08-19T17:33:52;50.20;;;33.60;;
6751;SDS011;3413;47.680;9.166;2022-08-19T17:38:57;49.77;;;33.00;;
6751;SDS011;3413;47.680;9.166;2022-08-19T17:44:01;48.40;;;30.83;;
6751;SDS011;3413;47.680;9.166;2022-08-19T17:49:03;48.17;;;32.17;;
6751;SDS011;3413;47.680;9.166;2022-08-19T17:54:08;48.80;;;31.30;;
6751;SDS011;3413;47.680;9.166;2022-08-19T17:59:11;45.10;;;30.47;;
6751;SDS011;3413;47.680;9.166;2022-08-19T18:04:14;42.33;;;28.77;;
6751;SDS011;3413;47.680;9.166;2022-08-19T18:09:17;42.90;;;29.83;;
6751;SDS011;3413;47.680;9.166;2022-08-19T18:14:21;45.67;;;31.20;;
6751;SDS011;3413;47.680;9.166;2022-08-19T18:19:37;46.87;;;31.53;;
6751;SDS011;3413;47.680;9.166;2022-08-19T18:24:43;43.73;;;28.53;;
6751;SDS011;3413;47.680;9.166;2022-08-19T18:29:46;42.23;;;26.37;;
6751;SDS011;3413;47.680;9.166;2022-08-19T18:34:48;43.47;;;29.10;;
6751;SDS011;3413;47.680;9.166;2022-08-19T18:39:50;41.07;;;28.70;;
6751;SDS011;3413;47.680;9.166;2022-08-19T18:45:12;41.27;;;27.40;;
6751;SDS011;3413;47.680;9.166;2022-08-19T18:50:33;42.80;;;28.03;;
6751;SDS011;3413;47.680;9.166;2022-08-19T18:55:35;40.80;;;27.97;;
6751;SDS011;3413;47.680;9.166;2022-08-19T19:00:37;42.20;;;26.07;;
6751;SDS011;3413;47.680;9.166;2022-08-19T19:05:40;35.10;;;24.20;;
6751;SDS011;3413;47.680;9.166;2022-08-19T19:10:44;34.20;;;23.97;;
6751;SDS011;3413;47.680;9.166;2022-08-19T19:15:51;33.33;;;23.80;;
6751;SDS011;3413;47.680;9.166;2022-08-19T19:20:55;34.57;;;24.03;;
6751;SDS011;3413;47.680;9.166;2022-08-19T19:25:57;33.47;;;22.77;;
6751;SDS011;3413;47.680;9.166;2022-08-19T19:31:00;40.20;;;23.00;;
6751;SDS011;3413;47.680;9.166;2022-08-19T19:36:02;33.60;;;21.87;;
6751;SDS011;3413;47.680;9.166;2022-08-19T19:41:04;32.23;;;21.43;;
6751;SDS011;3413;47.680;9.166;2022-08-19T19:46:07;32.93;;;22.40;;
6751;SDS011;3413;47.680;9.166;2022-08-19T19:51:09;30.77;;;21.80;;
6751;SDS011;3413;47.680;9.166;2022-08-19T19:56:11;32.83;;;22.03;;
6751;SDS011;3413;47.680;9.166;2022-08-19T20:01:14;31.77;;;21.20;;
6751;SDS011;3413;47.680;9.166;2022-08-19T20:06:22;29.30;;;20.83;;
6751;SDS011;3413;47.680;9.166;2022-08-19T20:16:31;31.20;;;21.47;;
6751;SDS011;3413;47.680;9.166;2022-08-19T20:21:34;29.60;;;21.70;;
6751;SDS011;3413;47.680;9.166;2022-08-19T20:26:38;35.13;;;21.40;;
6751;SDS011;3413;47.680;9.166;2022-08-19T20:31:41;29.10;;;22.00;;
6751;SDS011;3413;47.680;9.166;2022-08-19T20:36:59;32.70;;;22.13;;
6751;SDS011;3413;47.680;9.166;2022-08-19T20:42:02;28.57;;;21.17;;
6751;SDS011;3413;47.680;9.166;2022-08-19T20:47:04;31.10;;;21.37;;
6751;SDS011;3413;47.680;9.166;2022-08-19T20:52:06;28.20;;;20.67;;
6751;SDS011;3413;47.680;9.166;2022-08-19T20:57:08;28.83;;;21.50;;
6751;SDS011;3413;47.680;9.166;2022-08-19T21:02:10;28.73;;;21.17;;
6751;SDS011;3413;47.680;9.166;2022-08-19T21:07:13;28.63;;;20.77;;
6751;SDS011;3413;47.680;9.166;2022-08-19T21:12:15;27.60;;;19.70;;
6751;SDS011;3413;47.680;9.166;2022-08-19T21:17:19;26.97;;;19.67;;
6751;SDS011;3413;47.680;9.166;2022-08-19T21:22:21;27.37;;;19.07;;
6751;SDS011;3413;47.680;9.166;2022-08-19T21:27:23;27.13;;;18.53;;
6751;SDS011;3413;47.680;9.166;2022-08-19T21:32:25;22.47;;;17.30;;
6751;SDS011;3413;47.680;9.166;2022-08-19T21:37:27;27.13;;;18.53;;
6751;SDS011;3413;47.680;9.166;2022-08-19T21:42:30;24.40;;;18.50;;
6751;SDS011;3413;47.680;9.166;2022-08-19T21:47:32;23.83;;;18.23;;
6751;SDS011;3413;47.680;9.166;2022-08-19T21:52:35;22.83;;;16.67;;
6751;SDS011;3413;47.680;9.166;2022-08-19T21:57:38;24.57;;;18.10;;
6751;SDS011;3413;47.680;9.166;2022-08-19T22:02:42;24.83;;;18.20;;
6751;SDS011;3413;47.680;9.166;2022-08-19T22:07:44;23.33;;;18.03;;
6751;SDS011;3413;47.680;9.166;2022-08-19T22:12:47;24.20;;;17.80;;
6751;SDS011;3413;47.680;9.166;2022-08-19T22:22:56;25.10;;;16.03;;
6751;SDS011;3413;47.680;9.166;2022-08-19T22:28:03;26.27;;;16.43;;
6751;SDS011;3413;47.680;9.166;2022-08-19T22:33:13;22.53;;;17.20;;
6751;SDS011;3413;47.680;9.166;2022-08-19T22:38:17;22.03;;;16.37;;
6751;SDS011;3413;47.680;9.166;2022-08-19T22:43:20;27.07;;;17.17;;
6751;SDS011;3413;47.680;9.166;2022-08-19T22:48:26;24.63;;;17.50;;
6751;SDS011;3413;47.680;9.166;2022-08-19T22:53:30;21.97;;;17.00;;
6751;SDS011;3413;47.680;9.166;2022-08-19T22:58:33;24.10;;;17.23;;
6751;SDS011;3413;47.680;9.166;2022-08-19T23:03:35;24.00;;;17.37;;
6751;SDS011;3413;47.680;9.166;2022-08-19T23:08:37;24.30;;;17.63;;
6751;SDS011;3413;47.680;9.166;2022-08-19T23:13:40;22.30;;;17.47;;
6751;SDS011;3413;47.680;9.166;2022-08-19T23:18:42;26.90;;;18.17;;
6751;SDS011;3413;47.680;9.166;2022-08-19T23:23:45;26.47;;;18.07;;
6751;SDS011;3413;47.680;9.166;2022-08-19T23:28:48;22.77;;;16.60;;
6751;SDS011;3413;47.680;9.166;2022-08-19T23:34:08;20.57;;;15.70;;
6751;SDS011;3413;47.680;9.166;2022-08-19T23:39:10;21.80;;;16.83;;
6751;SDS011;3413;47.680;9.166;2022-08-19T23:44:13;22.50;;;17.47;;
6751;SDS011;3413;47.680;9.166;2022-08-19T23:49:15;22.90;;;17.10;;
6751;SDS011;3413;47.680;9.166;2022-08-19T23:54:17;21.87;;;16.90;;
6751;SDS011;3413;47.680;9.166;2022-08-19T23:59:19;25.23;;;17.90;;
